createdAt,value
2022-08-10T00:01:16.489Z,19.0
2022-08-10T00:03:16.419Z,19.1
2022-08-10T00:05:16.426Z,19.4
2022-08-10T00:07:16.451Z,19.3
2022-08-10T00:09:16.470Z,19.3
2022-08-10T00:11:16.892Z,19.1
2022-08-10T00:13:16.468Z,19.0
2022-08-10T00:15:53.015Z,19.0
2022-08-10T00:17:16.452Z,19.2
2022-08-10T00:19:18.209Z,19.3
2022-08-10T00:21:16.433Z,19.5
2022-08-10T00:23:16.439Z,19.6
2022-08-10T00:25:16.469Z,19.7
2022-08-10T00:27:52.688Z,19.5
2022-08-10T00:29:16.439Z,20.0
2022-08-10T00:31:16.441Z,20.1
2022-08-10T00:33:16.493Z,20.4
2022-08-10T00:35:16.477Z,20.4
2022-08-10T00:37:16.455Z,20.5
2022-08-10T00:39:16.442Z,20.6
2022-08-10T00:41:16.465Z,20.4
2022-08-10T00:43:23.372Z,20.3
2022-08-10T00:45:16.482Z,20.3
2022-08-10T00:47:36.333Z,20.2
2022-08-10T00:49:16.457Z,20.3
2022-08-10T00:51:16.459Z,20.2
2022-08-10T00:53:16.467Z,20.1
2022-08-10T00:57:12.725Z,20.1
2022-08-10T00:57:46.459Z,20.1
2022-08-10T00:59:58.521Z,20.0
2022-08-10T01:02:10.556Z,20.0
2022-08-10T01:04:36.755Z,20.0
2022-08-10T01:05:51.651Z,20.0
2022-08-10T01:07:46.459Z,20.0
2022-08-10T01:09:55.706Z,20.2
2022-08-10T01:12:38.865Z,20.3
2022-08-10T01:13:46.469Z,20.3
2022-08-10T01:15:46.495Z,20.2
2022-08-10T01:17:50.134Z,20.1
2022-08-10T01:19:46.486Z,20.1
2022-08-10T01:21:53.878Z,20.0
2022-08-10T01:23:46.479Z,19.9
2022-08-10T01:26:11.600Z,19.9
2022-08-10T01:27:46.470Z,19.9
2022-08-10T01:29:46.500Z,19.5
2022-08-10T01:31:46.494Z,19.3
2022-08-10T01:34:02.349Z,19.0
2022-08-10T01:35:46.508Z,18.8
2022-08-10T01:37:51.840Z,18.8
2022-08-10T01:39:46.590Z,18.8
2022-08-10T01:41:47.233Z,18.8
2022-08-10T01:43:46.504Z,19.0
2022-08-10T01:45:46.522Z,18.9
2022-08-10T01:47:46.520Z,19.0
2022-08-10T01:49:46.510Z,19.1
2022-08-10T01:51:46.512Z,19.0
2022-08-10T01:53:46.506Z,18.9
2022-08-10T01:55:46.498Z,18.9
2022-08-10T01:57:46.527Z,18.6
2022-08-10T01:59:54.593Z,18.5
2022-08-10T02:01:46.595Z,18.6
2022-08-10T02:04:05.401Z,18.6
2022-08-10T02:05:46.526Z,18.6
2022-08-10T02:07:46.496Z,18.6
2022-08-10T02:09:46.516Z,18.5
2022-08-10T02:12:05.079Z,18.5
2022-08-10T02:13:46.601Z,18.5
2022-08-10T02:16:01.107Z,18.5
2022-08-10T02:17:58.612Z,18.9
2022-08-10T02:19:46.527Z,18.6
2022-08-10T02:22:35.017Z,18.6
2022-08-10T02:23:46.523Z,18.6
2022-08-10T02:25:46.551Z,18.7
2022-08-10T02:27:46.538Z,19.0
2022-08-10T02:29:48.966Z,19.0
2022-08-10T02:31:46.547Z,19.2
2022-08-10T02:33:57.463Z,19.6
2022-08-10T02:35:54.561Z,19.9
2022-08-10T02:37:46.533Z,20.2
2022-08-10T02:39:46.658Z,20.4
2022-08-10T02:45:02.553Z,20.4
2022-08-10T02:45:19.190Z,20.4
2022-08-10T02:45:46.574Z,20.4
2022-08-10T02:47:52.269Z,20.3
2022-08-10T02:49:46.555Z,20.0
2022-08-10T02:52:06.891Z,20.3
2022-08-10T02:53:56.292Z,20.5
2022-08-10T02:56:16.565Z,20.7
2022-08-10T02:58:18.261Z,21.2
2022-08-10T03:00:16.582Z,21.3
2022-08-10T03:02:16.566Z,21.4
2022-08-10T03:04:16.563Z,21.6
2022-08-10T03:06:16.579Z,21.5
2022-08-10T03:08:16.566Z,21.5
2022-08-10T03:10:16.591Z,21.5
2022-08-10T03:12:38.455Z,21.2
2022-08-10T03:14:16.646Z,21.2
2022-08-10T03:16:16.599Z,21.0
2022-08-10T03:18:16.583Z,20.9
2022-08-10T03:20:37.651Z,21.0
2022-08-10T03:22:16.574Z,21.2
2022-08-10T03:24:30.097Z,21.1
2022-08-10T03:26:20.331Z,21.0
2022-08-10T03:28:20.635Z,21.0
2022-08-10T03:30:29.324Z,21.1
2022-08-10T03:32:16.578Z,21.1
2022-08-10T03:34:20.138Z,21.0
2022-08-10T03:36:42.644Z,20.8
2022-08-10T03:38:16.579Z,20.7
2022-08-10T03:40:16.578Z,20.5
2022-08-10T03:42:16.583Z,20.5
2022-08-10T03:44:16.596Z,20.7
2022-08-10T03:46:16.604Z,20.9
2022-08-10T03:48:16.589Z,21.0
2022-08-10T03:50:46.105Z,21.0
2022-08-10T03:52:16.596Z,20.9
2022-08-10T03:54:16.606Z,20.6
2022-08-10T03:56:28.387Z,20.6
2022-08-10T03:58:16.603Z,20.4
2022-08-10T04:00:16.630Z,20.3
2022-08-10T04:02:46.395Z,20.0
2022-08-10T04:04:22.531Z,19.7
2022-08-10T04:06:16.623Z,19.6
2022-08-10T04:08:16.635Z,19.9
2022-08-10T04:10:16.621Z,19.9
2022-08-10T04:12:16.609Z,20.0
2022-08-10T04:14:35.682Z,20.1
2022-08-10T04:16:16.633Z,20.0
2022-08-10T04:18:16.619Z,20.2
2022-08-10T04:20:16.606Z,20.3
2022-08-10T04:22:16.634Z,20.1
2022-08-10T04:24:24.794Z,20.3
2022-08-10T04:26:16.633Z,20.5
2022-08-10T04:28:16.611Z,20.3
2022-08-10T04:30:16.611Z,20.2
2022-08-10T04:32:16.637Z,19.9
2022-08-10T04:34:16.618Z,19.6
2022-08-10T04:36:16.634Z,19.6
2022-08-10T04:38:16.629Z,19.5
2022-08-10T04:40:28.983Z,19.7
2022-08-10T04:42:16.662Z,19.8
2022-08-10T04:44:16.643Z,19.5
2022-08-10T04:46:56.233Z,19.6
2022-08-10T04:48:43.092Z,19.5
2022-08-10T04:50:16.743Z,19.6
2022-08-10T04:52:16.621Z,19.6
2022-08-10T04:54:16.651Z,19.9
2022-08-10T04:56:46.645Z,19.8
2022-08-10T04:58:46.647Z,19.7
2022-08-10T05:00:46.743Z,19.9
2022-08-10T05:02:46.640Z,20.1
2022-08-10T05:04:46.647Z,20.1
2022-08-10T05:06:46.670Z,20.1
2022-08-10T05:08:46.636Z,20.0
2022-08-10T05:10:46.688Z,19.8
2022-08-10T05:12:46.727Z,19.9
2022-08-10T05:14:46.719Z,20.1
2022-08-10T05:16:46.745Z,20.3
2022-08-10T05:18:46.721Z,20.5
2022-08-10T05:20:50.105Z,20.6
2022-08-10T05:22:46.706Z,20.7
2022-08-10T05:24:46.726Z,20.5
2022-08-10T05:26:55.260Z,20.4
2022-08-10T05:28:46.827Z,20.3
2022-08-10T05:30:46.723Z,20.3
2022-08-10T05:32:57.678Z,20.5
2022-08-10T05:34:46.765Z,20.6
2022-08-10T05:36:46.719Z,20.8
2022-08-10T05:38:46.665Z,20.9
2022-08-10T05:40:48.099Z,21.2
2022-08-10T05:42:46.664Z,21.2
2022-08-10T05:44:46.742Z,21.1
2022-08-10T05:46:46.748Z,21.1
2022-08-10T05:48:58.729Z,21.2
2022-08-10T05:50:46.790Z,21.4
2022-08-10T05:52:46.673Z,21.3
2022-08-10T05:54:46.685Z,21.3
2022-08-10T05:56:56.380Z,21.2
2022-08-10T05:58:46.692Z,21.3
2022-08-10T06:00:49.861Z,21.0
2022-08-10T06:02:47.092Z,21.0
2022-08-10T06:04:46.753Z,21.3
2022-08-10T06:06:46.786Z,21.0
2022-08-10T06:08:46.741Z,20.8
2022-08-10T06:12:25.491Z,21.1
2022-08-10T06:12:55.253Z,20.9
2022-08-10T06:14:48.499Z,20.9
2022-08-10T06:16:46.692Z,21.0
2022-08-10T06:18:46.787Z,20.9
2022-08-10T06:20:46.701Z,20.7
2022-08-10T06:22:46.772Z,20.5
2022-08-10T06:25:18.401Z,20.3
2022-08-10T06:26:46.804Z,20.2
2022-08-10T06:29:03.173Z,20.4
2022-08-10T06:30:46.803Z,20.5
2022-08-10T06:32:46.712Z,20.7
2022-08-10T06:34:46.770Z,20.5
2022-08-10T06:36:46.790Z,20.5
2022-08-10T06:38:46.868Z,20.2
2022-08-10T06:40:46.791Z,20.0
2022-08-10T06:42:46.765Z,19.8
2022-08-10T06:46:58.953Z,20.2
2022-08-10T06:48:58.953Z,19.9
2022-08-10T06:50:59.325Z,19.9
2022-08-10T06:52:58.954Z,20.0
2022-08-10T06:54:58.955Z,19.8
2022-08-10T06:57:17.236Z,19.8
2022-08-10T06:58:58.962Z,19.6
2022-08-10T07:00:58.998Z,19.7
2022-08-10T07:02:58.971Z,19.3
2022-08-10T07:04:59.007Z,19.4
2022-08-10T07:06:58.997Z,19.4
2022-08-10T07:08:58.969Z,19.5
2022-08-10T07:10:58.968Z,19.3
2022-08-10T07:12:58.985Z,19.6
2022-08-10T07:14:58.977Z,19.3
2022-08-10T07:16:59.003Z,19.5
2022-08-10T07:18:59.004Z,19.5
2022-08-10T07:20:58.967Z,19.9
2022-08-10T07:23:51.931Z,19.8
2022-08-10T07:24:59.014Z,20.0
2022-08-10T07:26:58.998Z,19.7
2022-08-10T07:28:59.039Z,19.7
2022-08-10T07:30:59.030Z,19.7
2022-08-10T07:32:59.004Z,19.7
2022-08-10T07:34:59.032Z,20.0
2022-08-10T07:36:58.967Z,20.1
2022-08-10T07:38:58.995Z,20.6
2022-08-10T07:40:58.991Z,20.6
2022-08-10T07:42:58.998Z,20.6
2022-08-10T07:45:29.010Z,20.8
2022-08-10T07:47:53.957Z,20.7
2022-08-10T07:49:29.008Z,21.0
2022-08-10T07:51:28.990Z,20.8
2022-08-10T07:53:29.010Z,20.7
2022-08-10T07:56:07.450Z,20.5
2022-08-10T07:57:31.439Z,20.6
2022-08-10T07:59:28.996Z,20.7
2022-08-10T08:01:29.076Z,20.8
2022-08-10T08:03:29.010Z,20.8
2022-08-10T08:05:57.443Z,20.7
2022-08-10T08:07:28.995Z,21.2
2022-08-10T08:09:28.998Z,21.4
2022-08-10T08:11:28.995Z,21.5
2022-08-10T08:13:29.045Z,21.4
2022-08-10T08:16:17.291Z,21.1
2022-08-10T08:17:35.509Z,21.2
2022-08-10T08:19:37.474Z,20.9
2022-08-10T08:24:04.585Z,20.8
2022-08-10T08:24:05.431Z,21.0
2022-08-10T08:25:29.031Z,20.9
2022-08-10T08:27:29.126Z,21.1
2022-08-10T08:29:29.120Z,21.0
2022-08-10T08:31:29.030Z,20.9
2022-08-10T08:33:42.182Z,21.1
2022-08-10T08:35:29.030Z,21.0
2022-08-10T08:38:30.249Z,20.7
2022-08-10T08:39:29.122Z,20.5
2022-08-10T08:41:29.056Z,20.5
2022-08-10T08:43:31.486Z,20.4
2022-08-10T08:45:29.052Z,20.3
2022-08-10T08:48:05.882Z,20.4
2022-08-10T08:50:09.153Z,20.4
2022-08-10T08:52:09.522Z,20.4
2022-08-10T08:54:02.595Z,20.3
2022-08-10T08:56:03.720Z,20.4
2022-08-10T08:57:50.532Z,20.5
2022-08-10T08:59:29.067Z,20.5
2022-08-10T09:01:40.816Z,20.4
2022-08-10T09:03:29.111Z,20.5
2022-08-10T09:05:29.055Z,20.4
2022-08-10T09:08:00.041Z,20.1
2022-08-10T09:09:29.086Z,19.9
2022-08-10T09:11:29.075Z,20.0
2022-08-10T09:13:29.197Z,20.0
2022-08-10T09:15:41.091Z,20.0
2022-08-10T09:17:29.079Z,20.0
2022-08-10T09:19:36.192Z,20.1
2022-08-10T09:21:29.061Z,20.0
2022-08-10T09:24:05.508Z,19.8
2022-08-10T09:25:29.084Z,19.9
2022-08-10T09:27:29.087Z,20.0
2022-08-10T09:29:29.088Z,20.1
2022-08-10T09:31:29.095Z,20.4
2022-08-10T09:36:20.168Z,20.1
2022-08-10T09:36:22.618Z,20.0
2022-08-10T09:37:42.568Z,20.0
2022-08-10T09:40:56.285Z,19.9
2022-08-10T09:41:29.188Z,19.8
2022-08-10T09:43:29.117Z,19.8
2022-08-10T09:45:29.087Z,19.6
2022-08-10T09:47:58.687Z,19.7
2022-08-10T09:49:53.387Z,19.6
2022-08-10T09:51:59.142Z,19.6
2022-08-10T09:53:59.107Z,19.6
2022-08-10T09:56:19.037Z,19.9
2022-08-10T09:57:59.298Z,19.8
2022-08-10T10:00:01.955Z,20.0
2022-08-10T10:02:04.179Z,19.9
2022-08-10T10:03:59.113Z,20.1
2022-08-10T10:05:59.126Z,20.2
2022-08-10T10:07:59.145Z,20.1
2022-08-10T10:09:59.130Z,20.0
2022-08-10T10:11:59.164Z,20.1
2022-08-10T10:14:04.366Z,20.0
2022-08-10T10:15:59.125Z,20.3
2022-08-10T10:17:59.129Z,20.3
2022-08-10T10:19:59.156Z,20.3
2022-08-10T10:21:59.183Z,20.7
2022-08-10T10:26:03.591Z,20.5
2022-08-10T10:27:59.157Z,20.6
2022-08-10T10:29:59.617Z,20.4
2022-08-10T10:31:59.133Z,20.2
2022-08-10T10:33:59.150Z,20.3
2022-08-10T10:35:59.189Z,20.2
2022-08-10T10:38:01.512Z,20.2
2022-08-10T10:39:59.251Z,20.4
2022-08-10T10:42:04.394Z,20.4
2022-08-10T10:43:59.157Z,20.1
2022-08-10T10:45:59.165Z,20.0
2022-08-10T10:47:59.177Z,19.8
2022-08-10T10:49:59.161Z,19.9
2022-08-10T10:52:01.861Z,19.9
2022-08-10T10:53:59.175Z,19.9
2022-08-10T10:56:15.198Z,19.7
2022-08-10T10:58:00.966Z,19.7
2022-08-10T10:59:59.154Z,19.5
2022-08-10T11:01:59.191Z,19.7
2022-08-10T11:03:59.174Z,19.6
2022-08-10T11:05:59.205Z,19.7
2022-08-10T11:07:59.194Z,19.6
2022-08-10T11:10:08.663Z,19.7
2022-08-10T11:12:00.781Z,19.5
2022-08-10T11:14:27.426Z,19.7
2022-08-10T11:15:59.244Z,19.4
2022-08-10T11:17:59.221Z,19.3
2022-08-10T11:20:02.924Z,19.5
2022-08-10T11:21:59.168Z,19.1
2022-08-10T11:24:47.863Z,19.3
2022-08-10T11:25:59.701Z,19.0
2022-08-10T11:27:59.223Z,19.0
2022-08-10T11:29:59.190Z,19.0
2022-08-10T11:31:59.242Z,19.0
2022-08-10T11:34:48.150Z,19.5
2022-08-10T11:35:59.184Z,19.4
2022-08-10T11:38:29.737Z,19.5
2022-08-10T11:39:59.286Z,19.6
2022-08-10T11:42:09.258Z,19.8
2022-08-10T11:43:59.234Z,19.5
2022-08-10T11:46:07.359Z,19.8
2022-08-10T11:47:59.299Z,19.8
2022-08-10T11:49:59.272Z,19.6
2022-08-10T11:51:59.291Z,19.8
2022-08-10T11:53:59.272Z,19.9
2022-08-10T11:56:29.307Z,20.0
2022-08-10T11:58:29.230Z,20.1
2022-08-10T12:00:32.362Z,20.1
2022-08-10T12:02:29.366Z,19.9
2022-08-10T12:04:29.241Z,20.0
2022-08-10T12:06:54.170Z,20.5
2022-08-10T12:10:02.791Z,20.7
2022-08-10T12:10:29.230Z,20.9
2022-08-10T12:12:29.230Z,21.0
2022-08-10T12:14:29.238Z,21.0
2022-08-10T12:16:29.225Z,21.0
2022-08-10T12:18:29.242Z,20.9
2022-08-10T12:20:29.246Z,20.9
2022-08-10T12:22:29.249Z,20.9
2022-08-10T12:24:29.256Z,20.8
2022-08-10T12:26:29.252Z,20.9
2022-08-10T12:28:49.893Z,20.8
2022-08-10T12:30:29.258Z,20.6
2022-08-10T12:32:29.257Z,20.9
2022-08-10T12:34:29.287Z,20.6
2022-08-10T12:36:29.269Z,20.8
2022-08-10T12:38:29.287Z,20.8
2022-08-10T12:40:35.758Z,20.8
2022-08-10T12:42:37.105Z,21.0
2022-08-10T12:44:42.162Z,21.3
2022-08-10T12:46:29.276Z,21.4
2022-08-10T12:48:31.462Z,21.3
2022-08-10T12:50:33.118Z,21.4
2022-08-10T12:52:29.262Z,21.3
2022-08-10T12:54:32.495Z,21.2
2022-08-10T12:56:29.284Z,21.3
2022-08-10T12:58:57.741Z,21.3
2022-08-10T13:00:29.297Z,21.4
2022-08-10T13:02:29.536Z,21.5
2022-08-10T13:04:29.297Z,21.5
2022-08-10T13:06:29.350Z,21.2
2022-08-10T13:08:29.475Z,21.1
2022-08-10T13:10:29.361Z,21.0
2022-08-10T13:12:34.809Z,20.9
2022-08-10T13:14:29.297Z,21.0
2022-08-10T13:16:31.185Z,21.1
2022-08-10T13:18:29.366Z,21.3
2022-08-10T13:20:29.374Z,21.1
2022-08-10T13:22:30.464Z,21.2
2022-08-10T13:24:29.298Z,21.3
2022-08-10T13:26:29.415Z,21.2
2022-08-10T13:28:37.706Z,21.2
2022-08-10T13:30:37.217Z,21.2
2022-08-10T13:32:29.381Z,20.9
2022-08-10T13:34:43.064Z,20.8
2022-08-10T13:36:45.089Z,20.6
2022-08-10T13:38:45.175Z,20.7
2022-08-10T13:40:45.078Z,20.6
2022-08-10T13:42:45.101Z,20.5
2022-08-10T13:44:45.093Z,20.5
2022-08-10T13:46:45.092Z,20.2
2022-08-10T13:48:45.091Z,20.4
2022-08-10T13:50:45.096Z,20.7
2022-08-10T13:52:45.104Z,20.9
2022-08-10T13:54:45.103Z,20.8
2022-08-10T13:56:45.101Z,20.7
2022-08-10T13:58:45.085Z,20.7
2022-08-10T14:00:45.106Z,20.9
2022-08-10T14:02:45.106Z,20.7
2022-08-10T14:04:45.187Z,20.6
2022-08-10T14:06:45.114Z,20.5
2022-08-10T14:08:45.179Z,20.4
2022-08-10T14:11:08.569Z,20.3
2022-08-10T14:12:45.190Z,20.2
2022-08-10T14:14:45.122Z,20.2
2022-08-10T14:16:45.133Z,20.2
2022-08-10T14:18:45.255Z,19.9
2022-08-10T14:20:45.149Z,19.9
2022-08-10T14:22:45.241Z,19.8
2022-08-10T14:24:45.108Z,19.7
2022-08-10T14:26:45.105Z,19.8
2022-08-10T14:28:45.135Z,19.9
2022-08-10T14:30:45.134Z,19.9
2022-08-10T14:32:45.137Z,19.9
2022-08-10T14:36:16.341Z,19.7
2022-08-10T14:36:45.156Z,19.6
2022-08-10T14:38:45.137Z,19.7
2022-08-10T14:40:45.125Z,19.8
2022-08-10T14:42:45.140Z,19.4
2022-08-10T14:44:45.154Z,19.2
2022-08-10T14:46:45.146Z,19.4
2022-08-10T14:48:45.155Z,19.2
2022-08-10T14:50:55.518Z,19.3
2022-08-10T14:52:45.393Z,19.4
2022-08-10T14:54:46.664Z,19.5
2022-08-10T14:56:45.165Z,19.5
2022-08-10T14:59:06.356Z,19.9
2022-08-10T15:00:45.167Z,19.6
2022-08-10T15:02:56.056Z,20.0
2022-08-10T15:05:15.754Z,20.1
2022-08-10T15:07:15.162Z,20.1
2022-08-10T15:09:19.464Z,20.1
2022-08-10T15:12:13.991Z,20.3
2022-08-10T15:13:33.815Z,20.2
2022-08-10T15:15:17.934Z,20.4
2022-08-10T15:17:15.173Z,20.2
2022-08-10T15:20:01.643Z,20.0
2022-08-10T15:21:17.184Z,20.2
2022-08-10T15:23:30.723Z,20.3
2022-08-10T15:25:18.115Z,20.3
2022-08-10T15:27:15.171Z,20.4
2022-08-10T15:29:22.904Z,20.4
2022-08-10T15:31:15.183Z,20.5
2022-08-10T15:33:15.181Z,20.6
2022-08-10T15:35:17.326Z,21.0
2022-08-10T15:37:40.588Z,21.0
2022-08-10T15:40:05.431Z,21.3
2022-08-10T15:41:15.256Z,21.2
2022-08-10T15:43:20.223Z,21.4
2022-08-10T15:45:15.195Z,21.4
2022-08-10T15:47:15.441Z,21.4
2022-08-10T15:49:15.199Z,21.4
2022-08-10T15:51:15.202Z,21.3
2022-08-10T15:53:15.813Z,21.4
2022-08-10T15:55:43.877Z,21.0
2022-08-10T15:57:15.243Z,21.0
2022-08-10T15:59:15.285Z,20.9
2022-08-10T16:02:03.871Z,20.8
2022-08-10T16:03:15.262Z,20.8
2022-08-10T16:05:15.202Z,20.8
2022-08-10T16:07:15.517Z,21.0
2022-08-10T16:10:26.380Z,20.8
2022-08-10T16:11:15.274Z,20.5
2022-08-10T16:13:59.221Z,20.6
2022-08-10T16:15:15.217Z,20.4
2022-08-10T16:17:15.273Z,20.6
2022-08-10T16:19:24.073Z,20.8
2022-08-10T16:21:15.234Z,20.8
2022-08-10T16:23:15.222Z,20.9
2022-08-10T16:25:15.232Z,21.0
2022-08-10T16:27:15.229Z,21.0
2022-08-10T16:29:15.231Z,21.0
2022-08-10T16:31:15.235Z,21.3
2022-08-10T16:33:15.233Z,21.2
2022-08-10T16:35:15.234Z,21.1
2022-08-10T16:37:15.225Z,20.8
2022-08-10T16:39:16.358Z,20.3
2022-08-10T16:42:00.170Z,20.5
2022-08-10T16:43:15.260Z,20.5
2022-08-10T16:45:15.246Z,20.5
2022-08-10T16:47:15.246Z,20.6
2022-08-10T16:49:15.265Z,20.3
2022-08-10T16:51:17.557Z,20.2
2022-08-10T16:53:15.285Z,20.1
2022-08-10T16:55:24.012Z,20.3
2022-08-10T16:57:15.307Z,19.9
2022-08-10T16:59:17.811Z,20.0
2022-08-10T17:01:15.446Z,19.9
2022-08-10T17:04:05.277Z,19.8
2022-08-10T17:05:15.377Z,19.5
2022-08-10T17:07:15.286Z,19.4
2022-08-10T17:11:45.340Z,19.9
2022-08-10T17:13:45.367Z,20.1
2022-08-10T17:15:45.325Z,20.3
2022-08-10T17:17:45.357Z,20.2
2022-08-10T17:19:45.365Z,20.1
2022-08-10T17:21:51.006Z,20.1
2022-08-10T17:23:45.300Z,20.1
2022-08-10T17:25:48.201Z,20.1
2022-08-10T17:28:03.843Z,20.1
2022-08-10T17:29:57.216Z,20.6
2022-08-10T17:31:53.773Z,20.3
2022-08-10T17:33:45.280Z,20.4
2022-08-10T17:35:45.278Z,20.5
2022-08-10T17:37:45.296Z,20.7
2022-08-10T17:39:45.374Z,20.7
2022-08-10T17:41:45.324Z,20.5
2022-08-10T17:44:01.431Z,20.4
2022-08-10T17:45:47.484Z,20.2
2022-08-10T17:47:45.374Z,20.2
2022-08-10T17:49:45.319Z,20.2
2022-08-10T17:51:45.298Z,19.9
2022-08-10T17:53:45.430Z,19.8
2022-08-10T17:55:45.336Z,19.9
2022-08-10T17:57:45.326Z,19.9
2022-08-10T17:59:45.322Z,19.9
2022-08-10T18:01:58.727Z,19.8
2022-08-10T18:03:45.309Z,19.9
2022-08-10T18:05:45.319Z,20.0
2022-08-10T18:07:45.296Z,20.1
2022-08-10T18:09:45.318Z,20.2
2022-08-10T18:11:45.306Z,20.2
2022-08-10T18:13:55.778Z,20.1
2022-08-10T18:15:45.445Z,20.0
2022-08-10T18:17:45.535Z,20.0
2022-08-10T18:19:45.391Z,20.0
2022-08-10T18:21:46.320Z,20.0
2022-08-10T18:23:52.512Z,20.1
2022-08-10T18:25:45.374Z,20.2
2022-08-10T18:28:00.636Z,19.9
2022-08-10T18:29:45.370Z,19.7
2022-08-10T18:31:45.434Z,19.6
2022-08-10T18:33:45.381Z,19.5
2022-08-10T18:35:45.337Z,19.4
2022-08-10T18:37:45.338Z,19.6
2022-08-10T18:39:45.487Z,19.7
2022-08-10T18:42:00.171Z,19.8
2022-08-10T18:44:06.567Z,19.8
2022-08-10T18:45:45.356Z,19.9
2022-08-10T18:47:58.972Z,19.9
2022-08-10T18:49:45.351Z,19.9
2022-08-10T18:51:46.974Z,20.0
2022-08-10T18:53:45.464Z,20.0
2022-08-10T18:55:46.288Z,19.9
2022-08-10T18:57:45.365Z,20.1
2022-08-10T19:00:03.905Z,20.2
2022-08-10T19:01:45.443Z,20.2
2022-08-10T19:03:53.801Z,18.0
2022-08-10T19:05:48.428Z,15.0
2022-08-10T19:07:45.436Z,17.2
2022-08-10T19:09:47.321Z,17.6
2022-08-10T19:12:31.109Z,19.9
2022-08-10T19:14:15.361Z,20.2
2022-08-10T19:16:15.616Z,19.7
2022-08-10T19:18:15.429Z,19.3
2022-08-10T19:20:15.434Z,18.8
2022-08-10T19:22:15.481Z,18.7
2022-08-10T19:24:15.471Z,18.3
2022-08-10T19:26:43.242Z,18.6
2022-08-10T19:28:15.420Z,19.1
2022-08-10T19:30:15.396Z,19.5
2022-08-10T19:32:15.470Z,19.0
2022-08-10T19:34:15.430Z,19.1
2022-08-10T19:36:15.392Z,19.1
2022-08-10T19:38:16.470Z,19.0
2022-08-10T19:40:15.527Z,19.1
2022-08-10T19:42:15.426Z,18.9
2022-08-10T19:44:15.447Z,18.9
2022-08-10T19:46:15.459Z,18.7
2022-08-10T19:48:15.441Z,18.4
2022-08-10T19:50:15.460Z,18.6
2022-08-10T19:52:15.501Z,19.0
2022-08-10T19:54:15.500Z,19.0
2022-08-10T19:56:32.949Z,19.0
2022-08-10T19:58:15.522Z,18.7
2022-08-10T20:00:22.879Z,18.9
2022-08-10T20:02:15.474Z,18.8
2022-08-10T20:04:15.487Z,18.9
2022-08-10T20:06:19.790Z,19.3
2022-08-10T20:08:19.132Z,19.1
2022-08-10T20:10:15.500Z,19.1
2022-08-10T20:12:15.468Z,18.9
2022-08-10T20:14:21.608Z,18.9
2022-08-10T20:16:15.502Z,19.0
2022-08-10T20:18:15.478Z,19.2
2022-08-10T20:20:15.476Z,19.6
2022-08-10T20:22:15.513Z,19.5
2022-08-10T20:24:15.520Z,19.4
2022-08-10T20:26:18.151Z,19.4
2022-08-10T20:28:15.587Z,19.1
2022-08-10T20:30:15.573Z,19.0
2022-08-10T20:32:15.538Z,19.1
2022-08-10T20:34:15.522Z,19.1
2022-08-10T20:36:15.529Z,19.3
2022-08-10T20:38:15.508Z,19.1
2022-08-10T20:40:15.567Z,19.0
2022-08-10T20:42:15.676Z,19.1
2022-08-10T20:44:15.690Z,19.2
2022-08-10T20:46:27.854Z,19.3
2022-08-10T20:48:25.733Z,19.5
2022-08-10T20:50:25.731Z,19.2
2022-08-10T20:52:25.934Z,18.7
2022-08-10T20:54:25.800Z,18.7
2022-08-10T20:56:25.803Z,18.6
2022-08-10T20:58:25.846Z,19.0
2022-08-10T21:00:25.836Z,18.5
2022-08-10T21:02:28.184Z,18.8
2022-08-10T21:04:25.754Z,18.7
2022-08-10T21:06:41.651Z,18.6
2022-08-10T21:08:25.977Z,18.5
2022-08-10T21:10:25.797Z,18.5
2022-08-10T21:12:25.764Z,18.3
2022-08-10T21:14:25.873Z,18.3
2022-08-10T21:16:25.816Z,18.3
2022-08-10T21:18:25.750Z,18.1
2022-08-10T21:20:30.726Z,17.9
2022-08-10T21:22:25.766Z,18.2
2022-08-10T21:24:25.840Z,18.3
2022-08-10T21:26:29.563Z,18.1
2022-08-10T21:28:29.224Z,18.0
2022-08-10T21:30:25.761Z,18.1
2022-08-10T21:32:25.716Z,18.1
2022-08-10T21:34:31.849Z,18.1
2022-08-10T21:36:25.745Z,18.2
2022-08-10T21:38:26.593Z,18.5
2022-08-10T21:40:34.504Z,18.7
2022-08-10T21:42:25.792Z,18.5
2022-08-10T21:44:25.730Z,18.5
2022-08-10T21:46:28.487Z,18.5
2022-08-10T21:48:30.054Z,18.5
2022-08-10T21:50:27.393Z,18.5
2022-08-10T21:52:25.730Z,18.6
2022-08-10T21:54:25.887Z,18.6
2022-08-10T21:56:25.741Z,18.6
2022-08-10T21:58:55.851Z,18.6
2022-08-10T22:00:55.820Z,18.5
2022-08-10T22:02:55.775Z,18.5
2022-08-10T22:04:55.760Z,18.4
2022-08-10T22:06:55.855Z,18.6
2022-08-10T22:08:55.754Z,18.5
2022-08-10T22:10:55.747Z,18.6
2022-08-10T22:12:55.827Z,18.6
2022-08-10T22:14:55.765Z,18.4
2022-08-10T22:16:55.862Z,18.3
2022-08-10T22:19:02.178Z,18.3
2022-08-10T22:20:55.748Z,18.3
2022-08-10T22:22:56.298Z,18.5
2022-08-10T22:24:56.627Z,18.5
2022-08-10T22:27:01.196Z,18.6
2022-08-10T22:28:55.770Z,18.5
2022-08-10T22:31:27.574Z,18.5
2022-08-10T22:32:55.754Z,18.6
2022-08-10T22:34:55.784Z,18.2
2022-08-10T22:36:55.818Z,18.0
2022-08-10T22:38:55.803Z,17.6
2022-08-10T22:40:55.774Z,17.2
2022-08-10T22:42:58.785Z,17.4
2022-08-10T22:44:55.795Z,17.5
2022-08-10T22:46:55.778Z,17.8
2022-08-10T22:48:55.769Z,17.6
2022-08-10T22:50:55.770Z,17.8
2022-08-10T22:53:02.983Z,17.9
2022-08-10T22:54:55.842Z,18.0
2022-08-10T22:56:55.879Z,18.1
2022-08-10T22:58:55.906Z,18.1
2022-08-10T23:00:55.861Z,18.1
2022-08-10T23:02:55.871Z,18.2
2022-08-10T23:04:55.887Z,17.9
2022-08-10T23:06:55.813Z,17.9
2022-08-10T23:08:55.781Z,18.0
2022-08-10T23:10:55.791Z,18.0
2022-08-10T23:12:55.803Z,18.0
2022-08-10T23:14:59.392Z,18.0
2022-08-10T23:16:55.803Z,18.1
2022-08-10T23:18:55.787Z,18.0
2022-08-10T23:20:55.800Z,17.8
2022-08-10T23:22:55.813Z,17.4
2022-08-10T23:24:55.813Z,17.3
2022-08-10T23:26:55.781Z,17.2
2022-08-10T23:29:05.294Z,17.3
2022-08-10T23:30:55.879Z,17.5
2022-08-10T23:32:55.808Z,17.3
2022-08-10T23:36:31.079Z,17.4
2022-08-10T23:36:55.855Z,17.6
2022-08-10T23:39:24.046Z,17.8
2022-08-10T23:40:55.808Z,18.0
2022-08-10T23:42:55.869Z,18.0
2022-08-10T23:44:55.847Z,17.9
2022-08-10T23:46:55.824Z,17.6
2022-08-10T23:48:55.822Z,17.9
2022-08-10T23:50:59.291Z,17.8
2022-08-10T23:52:55.829Z,17.6
2022-08-10T23:54:55.813Z,17.6
2022-08-10T23:56:55.826Z,17.5
2022-08-10T23:59:25.815Z,17.5
